createdAt,value
2023-05-11T00:00:55.000Z,15.4
2023-05-11T00:02:07.000Z,15.4
2023-05-11T00:03:20.000Z,15.4
2023-05-11T00:04:32.000Z,15.4
2023-05-11T00:05:44.000Z,15.4
2023-05-11T00:06:56.000Z,15.4
2023-05-11T00:08:08.000Z,15.4
2023-05-11T00:09:20.000Z,15.4
2023-05-11T00:10:33.000Z,15.4
2023-05-11T00:11:45.000Z,15.4
2023-05-11T00:12:57.000Z,15.3
2023-05-11T00:14:08.000Z,15.3
2023-05-11T00:15:20.000Z,15.4
2023-05-11T00:16:33.000Z,15.3
2023-05-11T00:17:45.000Z,15.3
2023-05-11T00:18:57.000Z,15.3
2023-05-11T00:20:09.000Z,15.3
2023-05-11T00:21:21.000Z,15.3
2023-05-11T00:23:46.000Z,15.3
2023-05-11T00:24:09.299Z,15.3
2023-05-11T00:24:58.000Z,15.3
2023-05-11T00:26:10.000Z,15.3
2023-05-11T00:27:22.000Z,15.3
2023-05-11T00:28:34.000Z,15.3
2023-05-11T00:29:46.000Z,15.3
2023-05-11T00:30:58.000Z,15.3
2023-05-11T00:32:10.000Z,15.3
2023-05-11T00:33:22.000Z,15.3
2023-05-11T00:34:34.000Z,15.3
2023-05-11T00:35:47.000Z,15.3
2023-05-11T00:36:59.000Z,15.3
2023-05-11T00:38:11.000Z,15.3
2023-05-11T00:39:23.000Z,15.3
2023-05-11T00:40:35.000Z,15.3
2023-05-11T00:41:48.000Z,15.3
2023-05-11T00:43:00.000Z,15.3
2023-05-11T00:44:12.000Z,15.2
2023-05-11T00:45:23.000Z,15.2
2023-05-11T00:46:35.000Z,15.3
2023-05-11T00:47:47.000Z,15.3
2023-05-11T00:49:00.000Z,15.2
2023-05-11T00:50:12.000Z,15.2
2023-05-11T00:51:24.000Z,15.2
2023-05-11T00:52:36.000Z,15.2
2023-05-11T00:53:48.000Z,15.2
2023-05-11T00:55:01.000Z,15.2
2023-05-11T00:56:13.000Z,15.2
2023-05-11T00:57:25.000Z,15.2
2023-05-11T00:58:37.000Z,15.2
2023-05-11T00:59:49.000Z,15.2
2023-05-11T01:01:01.000Z,15.2
2023-05-11T01:02:13.000Z,15.2
2023-05-11T01:03:25.000Z,15.2
2023-05-11T01:04:37.000Z,15.2
2023-05-11T01:05:49.000Z,15.2
2023-05-11T01:07:01.000Z,15.2
2023-05-11T01:08:14.000Z,15.2
2023-05-11T01:10:38.000Z,15.2
2023-05-11T01:11:01.611Z,15.2
2023-05-11T01:11:50.000Z,15.2
2023-05-11T01:13:02.000Z,15.2
2023-05-11T01:14:15.000Z,15.2
2023-05-11T01:15:27.000Z,15.2
2023-05-11T01:16:39.000Z,15.2
2023-05-11T01:17:50.000Z,15.2
2023-05-11T01:19:02.000Z,15.2
2023-05-11T01:20:14.000Z,15.2
2023-05-11T01:21:27.000Z,15.2
2023-05-11T01:22:39.000Z,15.2
2023-05-11T01:23:51.000Z,15.2
2023-05-11T01:25:03.000Z,15.2
2023-05-11T01:26:15.000Z,15.2
2023-05-11T01:27:28.000Z,15.2
2023-05-11T01:28:40.000Z,15.2
2023-05-11T01:29:52.000Z,15.2
2023-05-11T01:31:04.000Z,15.2
2023-05-11T01:32:16.000Z,15.2
2023-05-11T01:33:29.000Z,15.2
2023-05-11T01:34:40.000Z,15.2
2023-05-11T01:35:52.000Z,15.2
2023-05-11T01:37:04.000Z,15.2
2023-05-11T01:38:16.000Z,15.2
2023-05-11T01:39:28.000Z,15.2
2023-05-11T01:40:41.000Z,15.2
2023-05-11T01:41:53.000Z,15.1
2023-05-11T01:43:05.000Z,15.2
2023-05-11T01:44:17.000Z,15.1
2023-05-11T01:45:29.000Z,15.1
2023-05-11T01:46:42.000Z,15.1
2023-05-11T01:47:54.000Z,15.1
2023-05-11T01:49:06.000Z,15.1
2023-05-11T01:50:17.000Z,15.1
2023-05-11T01:51:29.000Z,15.1
2023-05-11T01:52:42.000Z,15.1
2023-05-11T01:53:54.000Z,15.1
2023-05-11T01:55:06.000Z,15.1
2023-05-11T01:56:18.000Z,15.1
2023-05-11T01:57:30.000Z,15.1
2023-05-11T01:58:42.000Z,15.1
2023-05-11T01:59:55.000Z,15.1
2023-05-11T02:01:07.000Z,15.1
2023-05-11T02:02:19.000Z,15.1
2023-05-11T02:03:31.000Z,15.1
2023-05-11T02:04:43.000Z,15.1
2023-05-11T02:05:55.000Z,15.1
2023-05-11T02:07:07.000Z,15.1
2023-05-11T02:08:19.000Z,15.1
2023-05-11T02:09:31.000Z,15.1
2023-05-11T02:10:43.000Z,15.1
2023-05-11T02:11:56.000Z,15.1
2023-05-11T02:13:08.000Z,15.1
2023-05-11T02:14:20.000Z,15
2023-05-11T02:15:32.000Z,15
2023-05-11T02:16:44.000Z,15
2023-05-11T02:17:56.000Z,15
2023-05-11T02:19:09.000Z,15
2023-05-11T02:20:21.000Z,15
2023-05-11T02:21:33.000Z,15
2023-05-11T02:22:44.000Z,15
2023-05-11T02:23:56.000Z,15
2023-05-11T02:25:09.000Z,15
2023-05-11T02:26:21.000Z,15
2023-05-11T02:27:33.000Z,15
2023-05-11T02:28:45.000Z,15
2023-05-11T02:29:57.000Z,15
2023-05-11T02:31:09.000Z,15
2023-05-11T02:32:22.000Z,15
2023-05-11T02:33:34.000Z,15
2023-05-11T02:34:46.000Z,15
2023-05-11T02:35:58.000Z,15
2023-05-11T02:37:10.000Z,15
2023-05-11T02:38:22.000Z,15
2023-05-11T02:39:34.000Z,15
2023-05-11T02:40:46.000Z,15
2023-05-11T02:41:58.000Z,14.9
2023-05-11T02:43:10.000Z,14.9
2023-05-11T02:44:23.000Z,14.9
2023-05-11T02:45:35.000Z,14.9
2023-05-11T02:46:47.000Z,14.9
2023-05-11T02:47:59.000Z,14.9
2023-05-11T02:49:11.000Z,14.9
2023-05-11T02:50:23.000Z,14.9
2023-05-11T02:51:36.000Z,14.9
2023-05-11T02:52:48.000Z,14.9
2023-05-11T02:54:00.000Z,14.9
2023-05-11T02:55:11.000Z,14.9
2023-05-11T02:56:23.000Z,14.9
2023-05-11T02:57:36.000Z,14.9
2023-05-11T02:58:48.000Z,14.9
2023-05-11T03:01:12.000Z,14.9
2023-05-11T03:01:35.859Z,14.9
2023-05-11T03:02:24.000Z,14.9
2023-05-11T03:03:37.000Z,14.9
2023-05-11T03:04:49.000Z,14.9
2023-05-11T03:06:01.000Z,14.9
2023-05-11T03:07:13.000Z,14.9
2023-05-11T03:08:25.000Z,14.9
2023-05-11T03:09:37.000Z,14.9
2023-05-11T03:10:50.000Z,14.9
2023-05-11T03:12:01.000Z,14.9
2023-05-11T03:13:13.000Z,14.9
2023-05-11T03:14:25.000Z,14.9
2023-05-11T03:15:37.000Z,14.9
2023-05-11T03:16:50.000Z,14.9
2023-05-11T03:18:02.000Z,14.9
2023-05-11T03:19:14.000Z,14.9
2023-05-11T03:20:26.000Z,14.9
2023-05-11T03:21:38.000Z,14.9
2023-05-11T03:22:51.000Z,14.9
2023-05-11T03:24:03.000Z,14.9
2023-05-11T03:25:15.000Z,14.9
2023-05-11T03:26:27.000Z,14.9
2023-05-11T03:27:38.000Z,14.9
2023-05-11T03:28:50.000Z,14.9
2023-05-11T03:30:03.000Z,14.9
2023-05-11T03:31:15.000Z,14.9
2023-05-11T03:32:27.000Z,14.9
2023-05-11T03:33:39.000Z,14.9
2023-05-11T03:34:51.000Z,14.9
2023-05-11T03:36:04.000Z,14.9
2023-05-11T03:37:16.000Z,14.9
2023-05-11T03:38:28.000Z,14.9
2023-05-11T03:39:40.000Z,14.9
2023-05-11T03:40:52.000Z,14.9
2023-05-11T03:42:04.000Z,14.9
2023-05-11T03:43:16.000Z,14.9
2023-05-11T03:44:27.000Z,14.9
2023-05-11T03:45:39.000Z,14.9
2023-05-11T03:46:51.000Z,14.9
2023-05-11T03:48:03.000Z,14.9
2023-05-11T03:50:28.000Z,14.9
2023-05-11T03:50:51.558Z,14.9
2023-05-11T03:51:40.000Z,14.9
2023-05-11T03:54:04.000Z,14.9
2023-05-11T03:54:28.117Z,14.9
2023-05-11T03:55:17.000Z,14.9
2023-05-11T03:56:29.000Z,14.9
2023-05-11T03:57:41.000Z,14.9
2023-05-11T03:58:53.000Z,14.9
2023-05-11T04:00:04.000Z,14.9
2023-05-11T04:01:17.000Z,14.9
2023-05-11T04:02:29.000Z,14.9
2023-05-11T04:03:41.000Z,14.9
2023-05-11T04:04:53.000Z,14.9
2023-05-11T04:06:05.000Z,14.9
2023-05-11T04:07:17.000Z,14.9
2023-05-11T04:08:30.000Z,14.9
2023-05-11T04:09:42.000Z,14.9
2023-05-11T04:10:54.000Z,14.9
2023-05-11T04:12:06.000Z,14.9
2023-05-11T04:13:18.000Z,14.9
2023-05-11T04:14:31.000Z,15
2023-05-11T04:15:42.000Z,15
2023-05-11T04:16:54.000Z,15
2023-05-11T04:18:06.000Z,15
2023-05-11T04:19:18.000Z,15
2023-05-11T04:20:30.000Z,15
2023-05-11T04:21:43.000Z,15
2023-05-11T04:22:55.000Z,15
2023-05-11T04:24:07.000Z,15
2023-05-11T04:25:19.000Z,15
2023-05-11T04:26:31.000Z,15
2023-05-11T04:27:44.000Z,15
2023-05-11T04:28:56.000Z,15
2023-05-11T04:30:08.000Z,15
2023-05-11T04:31:19.000Z,15.1
2023-05-11T04:32:31.000Z,15.1
2023-05-11T04:33:44.000Z,15.1
2023-05-11T04:34:56.000Z,15
2023-05-11T04:36:08.000Z,15.1
2023-05-11T04:37:20.000Z,15.1
2023-05-11T04:38:32.000Z,15.1
2023-05-11T04:39:44.000Z,15.1
2023-05-11T04:40:57.000Z,15.1
2023-05-11T04:42:09.000Z,15.1
2023-05-11T04:43:21.000Z,15.1
2023-05-11T04:44:33.000Z,15.1
2023-05-11T04:45:45.000Z,15.1
2023-05-11T04:46:57.000Z,15.2
2023-05-11T04:48:09.000Z,15.2
2023-05-11T04:49:21.000Z,15.2
2023-05-11T04:50:33.000Z,15.2
2023-05-11T04:51:45.845Z,15.1
2023-05-11T04:52:58.000Z,15.2
2023-05-11T04:54:10.000Z,15.2
2023-05-11T04:55:22.000Z,15.2
2023-05-11T04:56:34.000Z,15.2
2023-05-11T04:57:46.000Z,15.2
2023-05-11T04:58:58.000Z,15.2
2023-05-11T05:00:11.000Z,15.2
2023-05-11T05:01:23.000Z,15.2
2023-05-11T05:02:34.000Z,15.2
2023-05-11T05:03:46.000Z,15.2
2023-05-11T05:04:58.000Z,15.2
2023-05-11T05:06:11.000Z,15.2
2023-05-11T05:07:23.000Z,15.2
2023-05-11T05:08:35.000Z,15.2
2023-05-11T05:09:47.000Z,15.2
2023-05-11T05:10:59.000Z,15.2
2023-05-11T05:12:12.000Z,15.2
2023-05-11T05:13:24.000Z,15.2
2023-05-11T05:14:36.000Z,15.2
2023-05-11T05:15:48.000Z,15.2
2023-05-11T05:17:00.000Z,15.2
2023-05-11T05:18:11.000Z,15.2
2023-05-11T05:19:24.000Z,15.2
2023-05-11T05:20:36.000Z,15.2
2023-05-11T05:21:48.000Z,15.2
2023-05-11T05:23:00.000Z,15.2
2023-05-11T05:24:12.000Z,15.2
2023-05-11T05:25:25.000Z,15.2
2023-05-11T05:26:37.000Z,15.2
2023-05-11T05:27:49.000Z,15.3
2023-05-11T05:30:13.000Z,15.3
2023-05-11T05:30:37.116Z,15.3
2023-05-11T05:31:25.000Z,15.3
2023-05-11T05:32:38.000Z,15.3
2023-05-11T05:33:49.000Z,15.3
2023-05-11T05:35:01.000Z,15.4
2023-05-11T05:36:13.000Z,15.4
2023-05-11T05:37:25.000Z,15.4
2023-05-11T05:38:38.000Z,15.4
2023-05-11T05:39:50.000Z,15.4
2023-05-11T05:41:02.000Z,15.4
2023-05-11T05:42:14.000Z,15.4
2023-05-11T05:43:26.000Z,15.4
2023-05-11T05:44:39.000Z,15.5
2023-05-11T05:45:51.000Z,15.5
2023-05-11T05:47:03.000Z,15.4
2023-05-11T05:48:15.000Z,15.5
2023-05-11T05:49:26.000Z,15.5
2023-05-11T05:50:38.000Z,15.5
2023-05-11T05:51:51.000Z,15.5
2023-05-11T05:53:03.000Z,15.5
2023-05-11T05:54:15.000Z,15.5
2023-05-11T05:55:27.000Z,15.5
2023-05-11T05:56:39.000Z,15.5
2023-05-11T05:57:52.000Z,15.5
2023-05-11T05:59:04.000Z,15.5
2023-05-11T06:00:16.000Z,15.5
2023-05-11T06:01:28.000Z,15.5
2023-05-11T06:02:40.000Z,15.6
2023-05-11T06:03:53.000Z,15.6
2023-05-11T06:05:04.000Z,15.6
2023-05-11T06:06:16.000Z,15.6
2023-05-11T06:07:28.000Z,15.6
2023-05-11T06:08:40.000Z,15.6
2023-05-11T06:09:52.000Z,15.6
2023-05-11T06:11:05.000Z,15.6
2023-05-11T06:12:17.000Z,15.6
2023-05-11T06:13:29.000Z,15.6
2023-05-11T06:14:41.000Z,15.7
2023-05-11T06:15:53.000Z,15.7
2023-05-11T06:18:18.000Z,15.7
2023-05-11T06:18:41.622Z,15.7
2023-05-11T06:19:30.000Z,15.7
2023-05-11T06:20:41.000Z,15.7
2023-05-11T06:21:53.000Z,15.8
2023-05-11T06:23:06.000Z,15.8
2023-05-11T06:24:18.000Z,15.8
2023-05-11T06:25:30.000Z,15.8
2023-05-11T06:26:42.000Z,15.9
2023-05-11T06:27:54.000Z,15.9
2023-05-11T06:29:06.000Z,15.9
2023-05-11T06:30:19.000Z,15.9
2023-05-11T06:31:31.000Z,15.9
2023-05-11T06:32:43.000Z,15.9
2023-05-11T06:33:55.000Z,15.9
2023-05-11T06:35:07.000Z,15.8
2023-05-11T06:36:20.000Z,15.8
2023-05-11T06:37:31.000Z,15.9
2023-05-11T06:38:43.000Z,15.9
2023-05-11T06:39:55.000Z,15.9
2023-05-11T06:41:07.000Z,16
2023-05-11T06:42:20.000Z,16
2023-05-11T06:43:32.000Z,16
2023-05-11T06:44:44.000Z,16
2023-05-11T06:45:56.000Z,16.1
2023-05-11T06:47:08.000Z,16.2
2023-05-11T06:48:20.000Z,16.2
2023-05-11T06:49:33.000Z,16.4
2023-05-11T06:50:45.000Z,16.4
2023-05-11T06:51:57.000Z,16.4
2023-05-11T06:53:08.000Z,16.4
2023-05-11T06:54:20.000Z,16.5
2023-05-11T06:55:33.000Z,16.6
2023-05-11T06:56:45.000Z,16.8
2023-05-11T06:57:57.000Z,16.9
2023-05-11T06:59:09.000Z,16.9
2023-05-11T07:00:21.000Z,16.9
2023-05-11T07:01:33.000Z,16.9
2023-05-11T07:02:46.000Z,16.9
2023-05-11T07:03:58.000Z,16.9
2023-05-11T07:05:10.000Z,17
2023-05-11T07:06:22.000Z,17.1
2023-05-11T07:07:34.000Z,17.2
2023-05-11T07:08:46.000Z,17.4
2023-05-11T07:09:58.000Z,17.5
2023-05-11T07:11:10.000Z,17.6
2023-05-11T07:12:22.000Z,17.7
2023-05-11T07:13:34.000Z,17.6
2023-05-11T07:14:47.000Z,17.6
2023-05-11T07:15:59.000Z,17.7
2023-05-11T07:17:11.000Z,17.8
2023-05-11T07:18:23.000Z,17.9
2023-05-11T07:19:35.000Z,17.8
2023-05-11T07:20:47.000Z,17.9
2023-05-11T07:22:00.000Z,18
2023-05-11T07:23:12.000Z,18.1
2023-05-11T07:24:23.000Z,18.1
2023-05-11T07:25:35.000Z,18.1
2023-05-11T07:26:47.000Z,18.1
2023-05-11T07:28:00.000Z,18.2
2023-05-11T07:29:12.000Z,18.3
2023-05-11T07:30:24.000Z,18.4
2023-05-11T07:31:36.000Z,18.5
2023-05-11T07:32:48.000Z,18.6
2023-05-11T07:34:00.000Z,18.6
2023-05-11T07:35:13.000Z,18.7
2023-05-11T07:36:25.000Z,18.6
2023-05-11T07:37:37.000Z,18.6
2023-05-11T07:38:49.000Z,18.7
2023-05-11T07:40:00.000Z,18.8
2023-05-11T07:41:13.000Z,18.8
2023-05-11T07:42:25.000Z,18.9
2023-05-11T07:43:37.000Z,19
2023-05-11T07:44:49.000Z,19.1
2023-05-11T07:46:00.000Z,19.2
2023-05-11T07:47:13.000Z,19.3
2023-05-11T07:48:25.000Z,19.4
2023-05-11T07:49:37.000Z,19.3
2023-05-11T07:50:49.000Z,19.4
2023-05-11T07:52:01.000Z,19.5
2023-05-11T07:53:13.000Z,19.5
2023-05-11T07:54:26.000Z,19.5
2023-05-11T07:55:38.000Z,19.6
2023-05-11T07:56:50.000Z,19.7
2023-05-11T07:58:02.000Z,19.6
2023-05-11T07:59:14.000Z,19.5
2023-05-11T08:00:27.000Z,19.5
2023-05-11T08:01:39.000Z,19.4
2023-05-11T08:02:50.000Z,19.3
2023-05-11T08:04:02.000Z,19.3
2023-05-11T08:05:14.000Z,19.4
2023-05-11T08:06:26.000Z,19.5
2023-05-11T08:07:39.000Z,19.6
2023-05-11T08:08:51.000Z,19.7
2023-05-11T08:10:03.000Z,19.7
2023-05-11T08:11:15.000Z,19.7
2023-05-11T08:12:27.000Z,19.6
2023-05-11T08:13:40.000Z,19.7
2023-05-11T08:14:52.000Z,19.7
2023-05-11T08:16:04.000Z,19.9
2023-05-11T08:17:16.000Z,20
2023-05-11T08:18:27.000Z,19.9
2023-05-11T08:19:40.000Z,19.9
2023-05-11T08:20:52.000Z,19.9
2023-05-11T08:22:04.000Z,20
2023-05-11T08:23:16.000Z,20.2
2023-05-11T08:24:28.000Z,20.4
2023-05-11T08:25:40.000Z,20.5
2023-05-11T08:26:53.000Z,20.5
2023-05-11T08:28:05.000Z,20.6
2023-05-11T08:29:17.000Z,20.5
2023-05-11T08:30:29.000Z,20.5
2023-05-11T08:31:41.000Z,20.5
2023-05-11T08:32:54.000Z,20.5
2023-05-11T08:34:06.000Z,20.8
2023-05-11T08:35:17.000Z,21.7
2023-05-11T08:36:29.000Z,21.6
2023-05-11T08:37:41.000Z,21.4
2023-05-11T08:38:53.000Z,22
2023-05-11T08:40:06.000Z,21.8
2023-05-11T08:41:18.000Z,21.7
2023-05-11T08:42:30.000Z,21.6
2023-05-11T08:43:42.000Z,21.5
2023-05-11T08:44:54.000Z,21.6
2023-05-11T08:46:07.000Z,21.4
2023-05-11T08:47:19.000Z,21.3
2023-05-11T08:48:31.000Z,21.2
2023-05-11T08:49:43.000Z,21.3
2023-05-11T08:50:54.000Z,21.2
2023-05-11T08:52:06.000Z,21.1
2023-05-11T08:53:19.000Z,21.2
2023-05-11T08:54:31.000Z,21.2
2023-05-11T08:55:43.000Z,21.4
2023-05-11T08:56:55.000Z,21.5
2023-05-11T08:58:07.000Z,21.8
2023-05-11T08:59:20.000Z,22
2023-05-11T09:00:32.000Z,22.3
2023-05-11T09:01:44.000Z,22.5
2023-05-11T09:02:56.000Z,22.7
2023-05-11T09:04:08.000Z,22.7
2023-05-11T09:05:21.000Z,22.7
2023-05-11T09:06:32.000Z,22.7
2023-05-11T09:07:44.000Z,22.8
2023-05-11T09:10:08.000Z,23.1
2023-05-11T09:10:32.238Z,22.9
2023-05-11T09:11:20.000Z,23.3
2023-05-11T09:12:33.000Z,23.5
2023-05-11T09:13:45.000Z,23.7
2023-05-11T09:14:57.000Z,23.9
2023-05-11T09:16:09.000Z,24
2023-05-11T09:17:21.000Z,24.1
2023-05-11T09:18:34.000Z,24.2
2023-05-11T09:19:46.000Z,24.2
2023-05-11T09:20:58.000Z,24.3
2023-05-11T09:22:09.000Z,24.5
2023-05-11T09:23:21.000Z,24.5
2023-05-11T09:24:33.000Z,24.6
2023-05-11T09:25:46.000Z,24.6
2023-05-11T09:26:58.000Z,24.6
2023-05-11T09:28:10.000Z,24.6
2023-05-11T09:29:22.000Z,24.6
2023-05-11T09:30:34.000Z,24.6
2023-05-11T09:31:47.000Z,24.5
2023-05-11T09:32:59.000Z,24.4
2023-05-11T09:34:11.000Z,24.2
2023-05-11T09:35:23.000Z,24
2023-05-11T09:36:35.000Z,23.8
2023-05-11T09:37:47.000Z,23.7
2023-05-11T09:38:59.000Z,23.7
2023-05-11T09:40:11.000Z,23.7
2023-05-11T09:41:23.000Z,23.7
2023-05-11T09:42:35.000Z,23.8
2023-05-11T09:43:47.000Z,23.9
2023-05-11T09:45:00.000Z,23.9
2023-05-11T09:46:12.000Z,23.9
2023-05-11T09:47:24.000Z,23.7
2023-05-11T09:48:36.000Z,23.3
2023-05-11T09:49:48.000Z,23
2023-05-11T09:51:01.000Z,22.8
2023-05-11T09:52:13.000Z,22.6
2023-05-11T09:53:24.000Z,22.5
2023-05-11T09:54:36.000Z,22.4
2023-05-11T09:55:48.000Z,22.4
2023-05-11T09:57:00.000Z,22.6
2023-05-11T09:58:13.000Z,22.7
2023-05-11T09:59:25.000Z,22.6
2023-05-11T10:00:37.000Z,22.6
2023-05-11T10:01:49.000Z,22.6
2023-05-11T10:03:01.000Z,22.7
2023-05-11T10:04:14.000Z,22.7
2023-05-11T10:05:26.000Z,22.7
2023-05-11T10:06:38.000Z,22.7
2023-05-11T10:07:50.000Z,22.9
2023-05-11T10:09:01.000Z,23
2023-05-11T10:11:26.000Z,23.6
2023-05-11T10:11:49.712Z,23.2
2023-05-11T10:12:38.000Z,23.9
2023-05-11T10:13:50.000Z,24.5
2023-05-11T10:15:02.000Z,25.3
2023-05-11T10:16:14.000Z,25.8
2023-05-11T10:17:27.000Z,25.9
2023-05-11T10:18:39.000Z,26.5
2023-05-11T10:19:51.000Z,27.6
2023-05-11T10:21:03.000Z,28.6
2023-05-11T10:22:15.000Z,28.6
2023-05-11T10:23:28.000Z,28.1
2023-05-11T10:24:40.000Z,27.7
2023-05-11T10:25:52.000Z,27.3
2023-05-11T10:27:03.000Z,27
2023-05-11T10:28:15.000Z,26.6
2023-05-11T10:29:27.000Z,26.2
2023-05-11T10:30:40.000Z,25.9
2023-05-11T10:31:52.000Z,25.7
2023-05-11T10:33:04.000Z,25.5
2023-05-11T10:35:28.000Z,25.2
2023-05-11T10:35:52.411Z,25.3
2023-05-11T10:36:41.000Z,25.1
2023-05-11T10:37:53.000Z,24.9
2023-05-11T10:39:05.000Z,24.8
2023-05-11T10:40:17.000Z,24.6
2023-05-11T10:41:29.000Z,24.5
2023-05-11T10:42:40.000Z,24.4
2023-05-11T10:43:53.000Z,24.3
2023-05-11T10:45:05.000Z,24.2
2023-05-11T10:46:17.000Z,24.4
2023-05-11T10:47:29.000Z,25.1
2023-05-11T10:48:41.000Z,26.1
2023-05-11T10:49:54.000Z,26.8
2023-05-11T10:51:06.000Z,27.3
2023-05-11T10:52:18.000Z,27.3
2023-05-11T10:53:30.000Z,27.2
2023-05-11T10:54:42.000Z,27.2
2023-05-11T10:55:55.000Z,27
2023-05-11T10:57:07.000Z,26.8
2023-05-11T10:58:19.000Z,26.7
2023-05-11T10:59:30.000Z,26.5
2023-05-11T11:00:42.000Z,26.3
2023-05-11T11:01:54.000Z,26.1
2023-05-11T11:03:07.000Z,25.9
2023-05-11T11:04:19.000Z,25.7
2023-05-11T11:05:31.000Z,25.4
2023-05-11T11:06:43.000Z,25.2
2023-05-11T11:07:55.000Z,25.1
2023-05-11T11:09:08.000Z,24.9
2023-05-11T11:10:20.000Z,24.8
2023-05-11T11:11:32.000Z,24.6
2023-05-11T11:12:44.000Z,24.6
2023-05-11T11:13:56.000Z,24.5
2023-05-11T11:15:07.000Z,24.4
2023-05-11T11:16:20.000Z,24.4
2023-05-11T11:17:32.000Z,24.5
2023-05-11T11:18:44.000Z,24.5
2023-05-11T11:19:56.000Z,24.6
2023-05-11T11:21:08.000Z,24.7
2023-05-11T11:22:21.000Z,25.4
2023-05-11T11:23:33.000Z,26.3
2023-05-11T11:24:45.000Z,26.5
2023-05-11T11:25:57.000Z,27
2023-05-11T11:27:09.000Z,27.6
2023-05-11T11:28:22.000Z,28.3
2023-05-11T11:29:34.000Z,28.9
2023-05-11T11:30:45.000Z,29.2
2023-05-11T11:31:57.000Z,29.2
2023-05-11T11:33:09.000Z,29.2
2023-05-11T11:34:21.000Z,29.3
2023-05-11T11:35:34.000Z,29.2
2023-05-11T11:36:46.000Z,29.2
2023-05-11T11:37:58.000Z,29.3
2023-05-11T11:39:10.000Z,29.3
2023-05-11T11:40:22.000Z,29.3
2023-05-11T11:41:35.000Z,29.4
2023-05-11T11:42:47.000Z,29.5
2023-05-11T11:43:59.000Z,29.5
2023-05-11T11:45:11.000Z,29.6
2023-05-11T11:46:22.000Z,29.7
2023-05-11T11:47:33.000Z,29.7
2023-05-11T11:48:46.000Z,29.8
2023-05-11T11:49:58.000Z,29.9
2023-05-11T11:51:10.000Z,29.9
2023-05-11T11:52:22.000Z,29.9
2023-05-11T11:53:34.000Z,30
2023-05-11T11:54:47.000Z,30.1
2023-05-11T11:55:59.000Z,30.1
2023-05-11T11:57:11.000Z,30.2
2023-05-11T11:58:23.000Z,30.1
2023-05-11T11:59:35.000Z,30
2023-05-11T12:00:48.000Z,29.9
2023-05-11T12:02:00.000Z,29.9
2023-05-11T12:03:11.000Z,29.6
2023-05-11T12:04:23.000Z,29.5
2023-05-11T12:05:35.000Z,29.3
2023-05-11T12:06:47.000Z,29
2023-05-11T12:08:00.000Z,28.7
2023-05-11T12:09:12.000Z,28.5
2023-05-11T12:10:24.000Z,28.4
2023-05-11T12:11:36.000Z,28.3
2023-05-11T12:12:48.000Z,28.2
2023-05-11T12:14:01.000Z,28
2023-05-11T12:15:13.000Z,27.8
2023-05-11T12:16:25.000Z,27.6
2023-05-11T12:17:37.000Z,27.3
2023-05-11T12:18:48.000Z,27.1
2023-05-11T12:20:00.000Z,27
2023-05-11T12:21:13.000Z,27
2023-05-11T12:22:25.000Z,26.8
2023-05-11T12:23:37.000Z,26.6
2023-05-11T12:24:49.000Z,26.5
2023-05-11T12:26:01.000Z,26.3
2023-05-11T12:27:14.000Z,26.2
2023-05-11T12:28:26.000Z,26.1
2023-05-11T12:29:38.000Z,26
2023-05-11T12:30:50.000Z,25.8
2023-05-11T12:32:02.000Z,25.6
2023-05-11T12:33:15.000Z,25.3
2023-05-11T12:34:26.000Z,25
2023-05-11T12:35:38.000Z,24.7
2023-05-11T12:36:50.000Z,24.5
2023-05-11T12:38:02.000Z,24.3
2023-05-11T12:39:14.000Z,24.2
2023-05-11T12:40:27.000Z,24
2023-05-11T12:41:39.000Z,23.9
2023-05-11T12:42:51.000Z,23.8
2023-05-11T12:44:03.000Z,23.6
2023-05-11T12:45:15.000Z,23.5
2023-05-11T12:46:28.000Z,23.3
2023-05-11T12:47:40.000Z,23.2
2023-05-11T12:48:52.000Z,23.1
2023-05-11T12:50:03.000Z,23
2023-05-11T12:51:15.000Z,23
2023-05-11T12:52:27.000Z,22.9
2023-05-11T12:53:40.000Z,22.9
2023-05-11T12:54:52.000Z,22.9
2023-05-11T12:56:04.000Z,22.8
2023-05-11T12:57:16.000Z,22.7
2023-05-11T12:58:28.000Z,22.6
2023-05-11T12:59:41.000Z,22.5
2023-05-11T13:00:53.000Z,22.5
2023-05-11T13:02:05.000Z,22.5
2023-05-11T13:03:17.000Z,22.4
2023-05-11T13:04:29.000Z,22.4
2023-05-11T13:05:41.000Z,22.3
2023-05-11T13:06:53.000Z,22.3
2023-05-11T13:08:05.000Z,22.3
2023-05-11T13:09:17.000Z,22.3
2023-05-11T13:10:29.000Z,22.3
2023-05-11T13:11:41.000Z,22.3
2023-05-11T13:12:54.000Z,22.2
2023-05-11T13:15:18.000Z,22.1
2023-05-11T13:15:42.127Z,22.2
2023-05-11T13:16:30.000Z,22
2023-05-11T13:18:55.000Z,21.9
2023-05-11T13:19:18.692Z,22
2023-05-11T13:20:07.000Z,22
2023-05-11T13:21:18.000Z,22
2023-05-11T13:22:30.000Z,22
2023-05-11T13:23:42.000Z,22
2023-05-11T13:24:54.000Z,22
2023-05-11T13:26:07.000Z,22
2023-05-11T13:27:19.000Z,22
2023-05-11T13:28:31.000Z,21.9
2023-05-11T13:29:43.000Z,21.9
2023-05-11T13:30:55.000Z,21.8
2023-05-11T13:32:08.000Z,21.8
2023-05-11T13:33:20.000Z,21.8
2023-05-11T13:34:32.000Z,21.8
2023-05-11T13:35:44.000Z,21.8
2023-05-11T13:36:55.000Z,21.8
2023-05-11T13:38:08.000Z,21.9
2023-05-11T13:39:20.000Z,22
2023-05-11T13:41:44.000Z,22.3
2023-05-11T13:42:08.221Z,22.1
2023-05-11T13:42:56.000Z,22.4
2023-05-11T13:44:08.000Z,22.5
2023-05-11T13:45:21.000Z,22.6
2023-05-11T13:47:45.000Z,22.6
2023-05-11T13:48:09.155Z,22.6
2023-05-11T13:48:57.000Z,22.7
2023-05-11T13:50:09.000Z,22.7
2023-05-11T13:51:22.000Z,22.8
2023-05-11T13:52:33.000Z,22.9
2023-05-11T13:53:45.000Z,22.9
2023-05-11T13:54:57.000Z,22.9
2023-05-11T13:56:09.000Z,22.9
2023-05-11T13:57:21.000Z,22.9
2023-05-11T13:58:34.000Z,23
2023-05-11T13:59:46.000Z,22.9
2023-05-11T14:00:58.000Z,22.9
2023-05-11T14:02:10.000Z,22.9
2023-05-11T14:03:22.000Z,22.9
2023-05-11T14:04:35.000Z,22.9
2023-05-11T14:05:47.000Z,22.9
2023-05-11T14:06:59.000Z,22.9
2023-05-11T14:08:10.000Z,22.9
2023-05-11T14:09:22.000Z,22.9
2023-05-11T14:10:34.000Z,22.9
2023-05-11T14:11:47.000Z,22.8
2023-05-11T14:12:59.000Z,22.8
2023-05-11T14:14:11.000Z,22.8
2023-05-11T14:15:23.000Z,22.8
2023-05-11T14:16:35.000Z,22.9
2023-05-11T14:17:48.000Z,22.9
2023-05-11T14:19:00.000Z,22.9
2023-05-11T14:20:12.000Z,22.9
2023-05-11T14:21:24.000Z,22.9
2023-05-11T14:22:36.000Z,22.8
2023-05-11T14:23:48.000Z,22.9
2023-05-11T14:25:00.000Z,22.9
2023-05-11T14:26:12.000Z,22.9
2023-05-11T14:28:36.000Z,22.6
2023-05-11T14:29:00.462Z,22.7
2023-05-11T14:29:48.000Z,22.5
2023-05-11T14:31:01.000Z,22.4
2023-05-11T14:32:13.000Z,22.3
2023-05-11T14:33:25.000Z,22.1
2023-05-11T14:34:37.000Z,22
2023-05-11T14:35:49.000Z,21.9
2023-05-11T14:37:02.000Z,21.8
2023-05-11T14:38:14.000Z,21.7
2023-05-11T14:39:25.000Z,21.7
2023-05-11T14:40:37.000Z,21.6
2023-05-11T14:41:49.000Z,21.5
2023-05-11T14:43:01.000Z,21.4
2023-05-11T14:44:14.000Z,21.3
2023-05-11T14:45:26.000Z,21.3
2023-05-11T14:47:50.000Z,21.1
2023-05-11T14:48:14.432Z,21.2
2023-05-11T14:49:02.000Z,21.1
2023-05-11T14:50:15.000Z,21
2023-05-11T14:51:27.000Z,20.9
2023-05-11T14:52:39.000Z,20.9
2023-05-11T14:53:51.000Z,20.8
2023-05-11T14:55:02.000Z,20.8
2023-05-11T14:56:15.000Z,20.7
2023-05-11T14:57:27.000Z,20.7
2023-05-11T14:58:39.000Z,20.6
2023-05-11T14:59:51.000Z,20.6
2023-05-11T15:01:03.000Z,20.5
2023-05-11T15:02:15.000Z,20.5
2023-05-11T15:03:28.000Z,20.4
2023-05-11T15:04:40.000Z,20.4
2023-05-11T15:05:52.000Z,20.3
2023-05-11T15:07:04.000Z,20.3
2023-05-11T15:08:16.000Z,20.2
2023-05-11T15:09:29.000Z,20.2
2023-05-11T15:11:52.000Z,20.1
2023-05-11T15:12:16.166Z,20.2
2023-05-11T15:13:04.000Z,20.1
2023-05-11T15:14:16.000Z,20.1
2023-05-11T15:15:28.000Z,20
2023-05-11T15:16:41.000Z,20
2023-05-11T15:17:53.000Z,19.9
2023-05-11T15:19:05.000Z,19.9
2023-05-11T15:20:17.000Z,19.9
2023-05-11T15:21:29.000Z,19.9
2023-05-11T15:22:42.000Z,19.9
2023-05-11T15:23:54.000Z,19.9
2023-05-11T15:25:06.000Z,19.9
2023-05-11T15:26:17.000Z,19.9
2023-05-11T15:27:29.000Z,19.8
2023-05-11T15:28:41.000Z,19.9
2023-05-11T15:29:54.000Z,19.9
2023-05-11T15:32:18.000Z,19.8
2023-05-11T15:32:42.306Z,19.9
2023-05-11T15:33:30.000Z,19.8
2023-05-11T15:34:42.000Z,19.8
2023-05-11T15:35:55.000Z,19.8
2023-05-11T15:37:07.000Z,19.8
2023-05-11T15:38:19.000Z,19.8
2023-05-11T15:39:31.000Z,19.8
2023-05-11T15:40:43.000Z,19.9
2023-05-11T15:41:55.000Z,19.9
2023-05-11T15:43:07.000Z,19.9
2023-05-11T15:44:19.000Z,19.9
2023-05-11T15:45:31.000Z,20
2023-05-11T15:46:43.000Z,20
2023-05-11T15:47:55.000Z,20
2023-05-11T15:49:07.000Z,20
2023-05-11T15:50:19.000Z,20.1
2023-05-11T15:51:31.000Z,20.1
2023-05-11T15:52:43.000Z,20.1
2023-05-11T15:53:55.000Z,20.1
2023-05-11T15:55:08.000Z,20.1
2023-05-11T15:56:20.000Z,20.1
2023-05-11T15:57:32.000Z,20.1
2023-05-11T15:58:44.000Z,20.1
2023-05-11T15:59:56.000Z,20.2
2023-05-11T16:01:08.000Z,20.1
2023-05-11T16:02:21.000Z,20.2
2023-05-11T16:03:33.000Z,20.1
2023-05-11T16:04:44.000Z,20.1
2023-05-11T16:05:56.000Z,20.1
2023-05-11T16:07:08.000Z,20.1